Time;durP1;ratioP1;P1;durP2;ratioP2;P2;SDS_P1;SDS_P2;PMS_P1;PMS_P2;Temp;Humidity;BMP_temperature;BMP_pressure;BME280_temperature;BME280_humidity;BME280_pressure;Samples;Min_cycle;Max_cycle;Signal;HPM_P1;HPM_P2
2021/12/09 00:00:02;;;;;;;4.93;1.80;;;22.70;99.90;;;;;;5052461;28;20256;-78
2021/12/09 00:02:33;;;;;;;7.77;2.30;;;22.80;99.90;;;;;;5046690;28;20187;-75
2021/12/09 00:05:01;;;;;;;7.17;2.10;;;23.00;99.90;;;;;;5067995;28;20188;-76
2021/12/09 00:07:31;;;;;;;6.53;2.30;;;23.10;99.90;;;;;;5053939;28;20222;-75
2021/12/09 00:10:10;;;;;;;13.53;2.70;;;23.30;99.90;;;;;;5069008;28;20647;-72
2021/12/09 00:12:52;;;;;;;5.17;1.80;;;23.40;99.90;;;;;;5052360;28;20700;-72
2021/12/09 00:15:23;;;;;;;5.07;1.60;;;23.50;99.90;;;;;;5065534;28;20183;-74
2021/12/09 00:17:50;;;;;;;5.50;1.83;;;23.60;99.90;;;;;;5069616;28;20730;-70
2021/12/09 00:20:22;;;;;;;7.23;2.07;;;23.80;99.90;;;;;;5067898;28;20254;-73
2021/12/09 00:23:02;;;;;;;5.13;1.90;;;23.80;99.90;;;;;;5055235;28;20695;-77
2021/12/09 00:25:33;;;;;;;7.70;1.90;;;23.80;99.90;;;;;;5065779;28;20190;-70
2021/12/09 00:28:06;;;;;;;4.33;1.90;;;23.80;99.90;;;;;;5050117;28;20184;-75
2021/12/09 00:30:35;;;;;;;4.13;1.60;;;24.00;99.90;;;;;;5067378;28;20236;-68
2021/12/09 00:33:04;;;;;;;5.07;1.57;;;24.30;99.90;;;;;;5069665;28;20647;-70
2021/12/09 00:35:42;;;;;;;5.97;1.80;;;24.40;99.90;;;;;;5067055;28;20618;-69
2021/12/09 00:38:13;;;;;;;6.53;1.93;;;24.50;99.90;;;;;;5046437;28;20187;-68
2021/12/09 00:40:41;;;;;;;5.23;1.70;;;24.40;99.90;;;;;;5070295;28;20241;-68
2021/12/09 00:43:08;;;;;;;4.10;1.57;;;24.50;99.90;;;;;;5067415;28;20179;-68
2021/12/09 00:45:35;;;;;;;5.50;1.20;;;24.60;99.90;;;;;;5068897;28;20183;-69
2021/12/09 00:48:03;;;;;;;6.30;1.57;;;24.70;99.90;;;;;;5071789;28;20203;-69
2021/12/09 00:50:31;;;;;;;5.00;1.50;;;24.90;99.90;;;;;;5066247;28;20211;-70
2021/12/09 00:52:58;;;;;;;8.43;1.73;;;24.90;99.90;;;;;;5049113;28;20197;-68
2021/12/09 00:55:25;;;;;;;9.17;2.00;;;24.40;99.90;;;;;;5067753;28;20223;-69
2021/12/09 00:57:52;;;;;;;4.20;1.53;;;24.00;99.90;;;;;;5066270;28;20187;-71
2021/12/09 01:00:22;;;;;;;5.03;1.77;;;23.80;99.90;;;;;;5067783;28;20294;-70
2021/12/09 01:02:50;;;;;;;6.10;2.00;;;23.80;99.90;;;;;;5069462;28;20197;-69
2021/12/09 01:05:17;;;;;;;6.43;2.10;;;23.70;99.90;;;;;;5065678;28;20187;-68
2021/12/09 01:07:45;;;;;;;3.83;1.90;;;23.90;99.90;;;;;;5066609;28;20202;-68
2021/12/09 01:10:14;;;;;;;3.83;1.80;;;23.80;99.90;;;;;;5068345;28;20188;-68
2021/12/09 01:12:42;;;;;;;7.37;1.90;;;23.70;99.90;;;;;;5068098;28;20172;-69
2021/12/09 01:15:12;;;;;;;9.17;1.90;;;23.70;99.90;;;;;;5063554;28;20200;-69
2021/12/09 01:17:40;;;;;;;6.00;2.03;;;23.50;99.90;;;;;;5070016;28;20183;-67
2021/12/09 01:20:11;;;;;;;7.47;1.60;;;23.50;99.90;;;;;;5066213;28;20696;-70
2021/12/09 01:22:43;;;;;;;7.53;2.10;;;23.50;99.90;;;;;;5080524;28;20183;-68
2021/12/09 01:25:16;;;;;;;7.33;2.30;;;23.60;99.90;;;;;;5067358;28;20206;-69
2021/12/09 01:27:46;;;;;;;6.47;2.50;;;23.70;99.90;;;;;;5070502;28;20183;-68
2021/12/09 01:30:18;;;;;;;8.70;2.40;;;23.70;99.90;;;;;;5066265;28;20202;-70
2021/12/09 01:32:50;;;;;;;4.53;1.97;;;24.10;99.90;;;;;;5049989;28;20185;-70
2021/12/09 01:35:21;;;;;;;6.97;2.37;;;24.50;99.90;;;;;;5068732;28;20570;-70
2021/12/09 01:37:54;;;;;;;5.47;2.13;;;24.40;99.90;;;;;;5066843;28;20289;-72
2021/12/09 01:40:24;;;;;;;6.57;2.33;;;24.70;99.90;;;;;;5068481;28;20308;-69
2021/12/09 01:42:52;;;;;;;10.53;2.40;;;24.70;99.90;;;;;;5051600;28;20218;-69
2021/12/09 01:45:19;;;;;;;10.13;2.13;;;24.90;99.90;;;;;;5062556;28;20175;-71
2021/12/09 01:47:47;;;;;;;9.27;2.83;;;25.10;99.90;;;;;;5067446;28;20688;-67
2021/12/09 01:50:15;;;;;;;12.30;2.17;;;25.40;99.90;;;;;;5069024;28;20187;-68
2021/12/09 01:52:43;;;;;;;7.30;2.43;;;25.60;99.90;;;;;;5067798;28;20646;-70
2021/12/09 01:55:13;;;;;;;8.77;2.20;;;25.70;99.90;;;;;;5067178;28;20239;-69
2021/12/09 01:57:41;;;;;;;6.63;1.90;;;25.80;99.90;;;;;;5065782;28;20178;-71
2021/12/09 02:00:15;;;;;;;6.27;1.90;;;25.50;99.90;;;;;;5067992;28;20222;-72
2021/12/09 02:02:43;;;;;;;5.13;1.70;;;25.10;99.90;;;;;;5067066;28;20650;-70
2021/12/09 02:05:12;;;;;;;7.47;1.97;;;24.60;99.90;;;;;;5067617;28;20183;-72
2021/12/09 02:07:41;;;;;;;12.37;2.40;;;24.80;99.90;;;;;;5067391;28;20584;-69
2021/12/09 02:10:13;;;;;;;6.63;1.87;;;24.90;99.90;;;;;;5047397;28;20717;-67
2021/12/09 02:12:41;;;;;;;4.50;2.10;;;24.60;99.90;;;;;;5065656;28;20290;-71
2021/12/09 02:15:10;;;;;;;8.20;1.90;;;24.80;99.90;;;;;;5064281;28;20269;-69
2021/12/09 02:17:37;;;;;;;8.47;2.03;;;25.40;99.90;;;;;;5068301;28;20262;-69
2021/12/09 02:20:07;;;;;;;5.70;1.60;;;25.90;99.90;;;;;;5063927;28;20279;-68
2021/12/09 02:22:36;;;;;;;6.47;2.17;;;25.90;99.90;;;;;;5066519;28;20188;-69
2021/12/09 02:25:04;;;;;;;8.93;2.10;;;25.90;99.90;;;;;;5065041;28;20191;-70
2021/12/09 02:27:32;;;;;;;5.40;2.20;;;25.60;99.90;;;;;;5066756;28;20244;-68
2021/12/09 02:29:59;;;;;;;11.60;1.90;;;25.30;99.90;;;;;;5064328;28;20179;-71
2021/12/09 02:32:27;;;;;;;8.90;2.47;;;25.50;99.90;;;;;;5067885;28;20700;-71
2021/12/09 02:34:54;;;;;;;6.80;2.20;;;26.00;99.90;;;;;;5069038;28;20198;-71
2021/12/09 02:37:21;;;;;;;4.57;1.70;;;26.50;99.90;;;;;;5068187;28;20546;-71
2021/12/09 02:39:49;;;;;;;4.70;2.20;;;26.60;99.90;;;;;;5066023;28;20191;-68
2021/12/09 02:42:17;;;;;;;7.60;1.87;;;26.80;99.90;;;;;;5069305;28;20179;-68
2021/12/09 02:44:46;;;;;;;9.97;2.20;;;26.20;99.90;;;;;;5066739;28;20661;-69
2021/12/09 02:47:13;;;;;;;7.93;2.07;;;25.40;99.90;;;;;;5066901;28;20180;-68
2021/12/09 02:49:40;;;;;;;8.97;2.70;;;25.00;99.90;;;;;;5068939;28;20175;-68
2021/12/09 02:52:08;;;;;;;8.23;2.20;;;24.80;99.90;;;;;;5066367;28;20186;-69
2021/12/09 02:54:36;;;;;;;12.47;2.37;;;24.80;99.90;;;;;;5065832;28;20223;-67
2021/12/09 02:57:07;;;;;;;12.03;2.80;;;25.00;99.90;;;;;;5068628;28;20184;-68
2021/12/09 02:59:34;;;;;;;9.03;3.00;;;24.80;99.90;;;;;;5069859;28;20182;-68
2021/12/09 03:02:05;;;;;;;9.73;2.63;;;24.80;99.90;;;;;;5069125;28;20215;-67
2021/12/09 03:04:48;;;;;;;6.30;1.87;;;24.80;99.90;;;;;;5063802;28;20710;-68
2021/12/09 03:07:36;;;;;;;7.10;2.10;;;24.70;99.90;;;;;;5064706;28;20183;-69
2021/12/09 03:10:17;;;;;;;13.67;2.53;;;24.50;99.90;;;;;;5066002;28;20570;-70
2021/12/09 03:12:46;;;;;;;12.37;1.57;;;24.30;99.90;;;;;;5065229;28;20187;-68
2021/12/09 03:15:14;;;;;;;9.80;2.20;;;24.30;99.90;;;;;;5061110;28;20287;-67
2021/12/09 03:17:43;;;;;;;9.00;2.53;;;24.30;99.90;;;;;;5067415;28;20237;-67
2021/12/09 03:20:12;;;;;;;14.77;5.23;;;24.50;99.90;;;;;;5060472;28;20216;-68
2021/12/09 03:22:41;;;;;;;10.87;2.33;;;24.90;99.90;;;;;;5064807;28;20184;-67
2021/12/09 03:25:20;;;;;;;7.43;2.33;;;25.00;99.90;;;;;;5066630;28;20184;-75
2021/12/09 03:27:54;;;;;;;8.23;3.03;;;24.80;99.90;;;;;;5068015;28;20240;-71
2021/12/09 03:30:32;;;;;;;15.17;2.50;;;24.70;99.90;;;;;;5062520;28;20581;-74
2021/12/09 03:33:12;;;;;;;7.33;1.97;;;24.50;99.90;;;;;;5067617;28;20183;-73
2021/12/09 03:35:39;;;;;;;11.90;2.43;;;24.50;99.90;;;;;;5047474;28;20223;-70
2021/12/09 03:38:06;;;;;;;8.97;2.20;;;25.30;99.90;;;;;;5063792;28;20203;-66
2021/12/09 03:40:56;;;;;;;;;;;;;;;;;;;;;
2021/12/09 03:43:27;;;;;;;8.67;2.40;;;25.30;99.90;;;;;;5071662;28;20532;-76
2021/12/09 03:45:55;;;;;;;9.47;2.17;;;24.80;99.90;;;;;;5070276;28;20206;-70
2021/12/09 03:48:26;;;;;;;12.40;2.37;;;24.50;99.90;;;;;;5067434;28;20249;-71
2021/12/09 03:51:02;;;;;;;5.43;1.80;;;24.30;99.90;;;;;;5050791;28;20373;-76
2021/12/09 03:53:30;;;;;;;9.03;2.40;;;24.20;99.90;;;;;;5064931;28;20253;-79
2021/12/09 03:56:01;;;;;;;6.70;1.97;;;24.90;99.90;;;;;;5067819;28;20194;-72
2021/12/09 03:58:30;;;;;;;12.10;2.37;;;25.80;99.90;;;;;;5067507;28;20266;-75
2021/12/09 04:01:00;;;;;;;7.87;1.70;;;26.40;99.90;;;;;;5066908;28;20222;-75
2021/12/09 04:03:35;;;;;;;9.53;2.23;;;27.20;99.90;;;;;;5070139;28;20617;-73
2021/12/09 04:06:05;;;;;;;8.43;2.40;;;27.90;99.90;;;;;;5071006;28;20265;-73
2021/12/09 04:08:54;;;;;;;7.27;1.70;;;27.40;99.90;;;;;;5068368;28;20539;-77
2021/12/09 04:11:22;;;;;;;11.23;2.40;;;27.30;99.90;;;;;;5053608;28;20183;-68
2021/12/09 04:13:49;;;;;;;6.73;2.10;;;27.40;99.90;;;;;;5067466;28;20199;-70
2021/12/09 04:16:17;;;;;;;8.37;2.07;;;28.00;99.90;;;;;;5067396;28;20188;-68
2021/12/09 04:18:45;;;;;;;7.47;1.90;;;28.10;99.90;;;;;;5070019;28;20230;-71
2021/12/09 04:21:13;;;;;;;11.97;2.43;;;28.10;99.90;;;;;;5069822;28;20626;-69
2021/12/09 04:23:40;;;;;;;7.20;2.40;;;27.40;99.90;;;;;;5065224;28;20194;-68
2021/12/09 04:26:08;;;;;;;10.10;2.83;;;26.80;99.90;;;;;;5067592;28;20201;-67
2021/12/09 04:28:38;;;;;;;7.20;2.10;;;27.00;99.90;;;;;;5068199;28;20229;-67
2021/12/09 04:31:06;;;;;;;13.17;2.57;;;27.20;99.90;;;;;;5067391;28;20238;-67
2021/12/09 04:33:34;;;;;;;7.50;2.10;;;27.20;99.90;;;;;;5068794;28;20190;-66
2021/12/09 04:36:02;;;;;;;8.93;2.63;;;26.90;99.90;;;;;;5069599;28;20187;-70
2021/12/09 04:38:29;;;;;;;5.63;1.70;;;27.00;99.90;;;;;;5068067;28;20187;-71
2021/12/09 04:40:57;;;;;;;9.80;1.93;;;26.80;99.90;;;;;;5069581;28;20257;-69
2021/12/09 04:43:24;;;;;;;11.90;2.60;;;26.30;99.90;;;;;;5069550;28;20751;-67
2021/12/09 04:45:52;;;;;;;13.37;2.33;;;27.10;99.90;;;;;;5062427;28;20628;-67
2021/12/09 04:48:19;;;;;;;9.50;2.37;;;27.20;99.90;;;;;;5069099;28;20183;-70
2021/12/09 04:50:47;;;;;;;6.23;1.83;;;27.40;99.90;;;;;;5066672;28;20195;-69
2021/12/09 04:53:15;;;;;;;12.17;2.23;;;27.00;99.90;;;;;;5065391;28;20592;-70
2021/12/09 04:55:42;;;;;;;8.53;1.97;;;27.60;99.90;;;;;;5065864;28;20258;-68
2021/12/09 04:58:10;;;;;;;7.67;1.90;;;28.00;99.90;;;;;;5070175;28;20195;-69
2021/12/09 05:00:38;;;;;;;5.10;1.50;;;27.90;99.90;;;;;;5067565;28;20226;-70
2021/12/09 05:03:10;;;;;;;6.23;1.87;;;27.70;99.90;;;;;;5069800;28;20207;-69
2021/12/09 05:05:49;;;;;;;5.63;1.90;;;28.30;99.90;;;;;;5066154;28;20668;-69
2021/12/09 05:08:20;;;;;;;5.77;1.60;;;27.60;99.90;;;;;;5069674;28;20186;-73
2021/12/09 05:13:18;;;;;;;15.20;2.40;;;26.70;99.90;;;;;;5066103;28;20274;-71
2021/12/09 05:15:47;;;;;;;9.90;2.00;;;26.00;99.90;;;;;;5069599;28;20230;-69
2021/12/09 05:18:15;;;;;;;4.23;1.73;;;25.80;99.90;;;;;;5068917;28;20200;-71
2021/12/09 05:20:43;;;;;;;9.73;2.20;;;25.40;99.90;;;;;;5067160;28;20218;-70
2021/12/09 05:23:11;;;;;;;9.83;1.60;;;25.50;99.90;;;;;;5069526;28;20206;-70
2021/12/09 05:25:38;;;;;;;7.80;2.10;;;25.20;99.90;;;;;;5066356;28;20675;-71
2021/12/09 05:28:08;;;;;;;6.57;2.10;;;25.70;99.90;;;;;;5066315;28;20186;-69
2021/12/09 05:32:07;;;;;;;9.43;2.00;;;25.20;99.90;;;;;;5068963;28;20223;-69
2021/12/09 05:33:27;;;;;;;9.97;2.30;;;24.60;99.90;;;;;;5069804;28;20187;-69
2021/12/09 05:35:55;;;;;;;5.73;1.80;;;23.80;99.90;;;;;;5067605;28;20266;-70
2021/12/09 05:38:23;;;;;;;4.50;2.10;;;23.40;99.90;;;;;;5066129;28;20518;-69
2021/12/09 05:40:50;;;;;;;7.53;2.03;;;23.20;99.90;;;;;;5066024;28;20235;-70
2021/12/09 05:43:18;;;;;;;6.33;2.03;;;23.00;99.90;;;;;;5068290;28;20617;-72
2021/12/09 05:45:49;;;;;;;7.97;2.10;;;22.70;99.90;;;;;;5070176;28;20750;-70
2021/12/09 05:48:17;;;;;;;9.87;1.83;;;22.40;99.90;;;;;;5068543;28;20189;-70
2021/12/09 05:50:45;;;;;;;7.07;2.00;;;22.30;99.90;;;;;;5066501;28;20175;-69
2021/12/09 05:53:14;;;;;;;11.77;2.00;;;22.20;99.90;;;;;;5067372;28;20199;-72
2021/12/09 05:55:43;;;;;;;6.97;1.87;;;22.00;99.90;;;;;;5070276;28;20278;-70
2021/12/09 05:58:18;;;;;;;11.90;2.70;;;21.80;99.90;;;;;;5067083;28;20187;-68
2021/12/09 06:00:46;;;;;;;8.97;2.37;;;21.60;99.90;;;;;;5066432;28;20218;-67
2021/12/09 06:03:14;;;;;;;10.83;2.03;;;21.40;99.90;;;;;;5069628;28;20187;-68
2021/12/09 06:05:41;;;;;;;9.60;2.20;;;21.20;99.90;;;;;;5067846;28;20195;-67
2021/12/09 06:08:08;;;;;;;7.57;2.60;;;21.10;99.90;;;;;;5069347;28;20187;-67
2021/12/09 06:10:36;;;;;;;14.20;3.07;;;20.80;99.90;;;;;;5068461;28;20554;-65
2021/12/09 06:13:05;;;;;;;13.00;2.97;;;20.70;99.90;;;;;;5066521;28;20195;-66
2021/12/09 06:15:32;;;;;;;10.60;2.70;;;20.70;99.90;;;;;;5065893;28;20191;-67
2021/12/09 06:18:00;;;;;;;10.17;2.80;;;20.80;99.90;;;;;;5065633;28;20191;-66
2021/12/09 06:20:28;;;;;;;9.03;3.27;;;20.80;99.90;;;;;;5069191;28;20305;-65
2021/12/09 06:22:55;;;;;;;13.27;3.27;;;20.90;99.90;;;;;;5068005;28;20201;-66
2021/12/09 06:25:23;;;;;;;7.43;2.77;;;21.00;99.90;;;;;;5068971;28;20196;-68
2021/12/09 06:27:54;;;;;;;5.37;2.37;;;20.80;99.90;;;;;;5073363;28;20199;-69
2021/12/09 06:30:22;;;;;;;5.37;2.50;;;20.80;99.90;;;;;;5063693;28;20183;-70
2021/12/09 06:32:50;;;;;;;8.80;2.43;;;20.60;99.90;;;;;;5062757;28;20284;-67
2021/12/09 06:35:18;;;;;;;7.00;2.17;;;20.70;99.90;;;;;;5063134;28;20597;-70
2021/12/09 06:37:48;;;;;;;8.60;2.47;;;21.10;99.90;;;;;;5073840;28;20538;-67
2021/12/09 06:40:19;;;;;;;8.27;2.17;;;21.30;99.90;;;;;;5064474;28;20314;-67
2021/12/09 06:42:47;;;;;;;10.47;2.63;;;21.30;99.90;;;;;;5063105;28;21561;-69
2021/12/09 06:45:16;;;;;;;8.23;2.60;;;21.10;99.90;;;;;;5062298;28;20695;-69
2021/12/09 06:47:45;;;;;;;6.87;2.33;;;21.00;99.90;;;;;;5066333;28;20624;-70
2021/12/09 06:50:15;;;;;;;7.50;2.73;;;20.90;99.90;;;;;;5067363;28;20194;-72
2021/12/09 06:52:43;;;;;;;5.53;2.10;;;20.80;99.90;;;;;;5064981;28;20179;-70
2021/12/09 06:55:14;;;;;;;8.03;2.63;;;20.70;99.90;;;;;;5067305;28;20716;-69
2021/12/09 06:57:45;;;;;;;10.07;3.23;;;20.80;99.90;;;;;;5064467;28;20200;-69
2021/12/09 07:00:18;;;;;;;7.40;2.80;;;20.70;99.90;;;;;;5068410;28;20199;-69
2021/12/09 07:02:46;;;;;;;7.27;2.50;;;20.80;99.90;;;;;;5067218;28;20199;-68
2021/12/09 07:05:15;;;;;;;8.27;2.40;;;20.70;99.90;;;;;;5067842;28;20184;-70
2021/12/09 07:07:42;;;;;;;8.40;2.93;;;20.70;99.90;;;;;;5068549;28;20191;-72
2021/12/09 07:10:12;;;;;;;8.57;2.60;;;20.60;99.90;;;;;;5066602;28;20667;-68
2021/12/09 07:12:39;;;;;;;5.50;2.40;;;20.50;99.90;;;;;;5067858;28;20218;-69
2021/12/09 07:15:09;;;;;;;8.97;2.63;;;20.50;99.90;;;;;;5073343;28;20255;-71
2021/12/09 07:17:36;;;;;;;11.60;2.97;;;20.40;99.90;;;;;;5070293;28;20182;-70
2021/12/09 07:20:10;;;;;;;8.57;2.33;;;20.30;99.90;;;;;;5069870;28;20187;-70
2021/12/09 07:22:37;;;;;;;6.73;2.63;;;20.40;99.90;;;;;;5072387;28;20195;-70
2021/12/09 07:25:05;;;;;;;5.97;2.23;;;20.40;99.90;;;;;;5065967;28;20612;-73
2021/12/09 07:27:33;;;;;;;9.63;3.37;;;20.40;99.90;;;;;;5072077;28;20195;-68
2021/12/09 07:30:02;;;;;;;10.20;2.97;;;20.40;99.90;;;;;;5072303;28;20546;-69
2021/12/09 07:32:29;;;;;;;9.07;3.07;;;20.40;99.90;;;;;;5068720;28;20206;-69
2021/12/09 07:34:57;;;;;;;9.17;2.40;;;20.40;99.90;;;;;;5067976;28;20206;-68
2021/12/09 07:37:24;;;;;;;9.53;2.30;;;20.30;99.90;;;;;;5072646;28;20192;-68
2021/12/09 07:39:51;;;;;;;8.57;2.37;;;20.30;99.90;;;;;;5066679;28;20198;-69
2021/12/09 07:42:19;;;;;;;10.33;2.33;;;20.40;99.90;;;;;;5068365;28;20261;-70
2021/12/09 07:44:46;;;;;;;7.97;2.83;;;20.50;99.90;;;;;;5073181;28;20187;-68
2021/12/09 07:47:14;;;;;;;7.07;2.50;;;20.50;99.90;;;;;;5067424;28;20697;-68
2021/12/09 07:49:41;;;;;;;7.40;2.30;;;20.50;99.90;;;;;;5068817;28;20187;-68
2021/12/09 07:52:08;;;;;;;10.17;2.33;;;20.40;99.90;;;;;;5070725;28;20175;-68
2021/12/09 07:54:36;;;;;;;17.17;3.00;;;20.30;99.90;;;;;;5071027;28;20685;-67
2021/12/09 07:57:04;;;;;;;8.43;2.83;;;20.20;99.90;;;;;;5071387;28;20679;-70
2021/12/09 07:59:31;;;;;;;14.77;3.13;;;20.10;99.90;;;;;;5069468;28;20184;-68
2021/12/09 08:01:58;;;;;;;7.27;2.57;;;20.30;99.90;;;;;;5062265;28;20756;-68
2021/12/09 08:04:26;;;;;;;10.30;2.30;;;20.30;99.90;;;;;;5073457;28;20203;-67
2021/12/09 08:06:53;;;;;;;12.17;3.00;;;20.30;99.90;;;;;;5070477;28;20232;-66
2021/12/09 08:09:20;;;;;;;14.57;3.53;;;20.30;99.90;;;;;;5069716;28;20549;-67
2021/12/09 08:11:48;;;;;;;10.53;2.73;;;20.30;99.90;;;;;;5069731;28;20179;-67
2021/12/09 08:14:16;;;;;;;14.07;3.10;;;20.30;99.90;;;;;;5072214;28;20183;-66
2021/12/09 08:16:44;;;;;;;14.87;3.53;;;20.20;99.90;;;;;;5067648;28;20180;-65
2021/12/09 08:19:13;;;;;;;13.93;3.53;;;20.20;99.90;;;;;;5069641;28;20180;-66
2021/12/09 08:21:42;;;;;;;9.87;3.23;;;20.10;99.90;;;;;;5068970;28;20211;-65
2021/12/09 08:24:11;;;;;;;12.17;3.67;;;20.10;99.90;;;;;;5069123;28;20740;-66
2021/12/09 08:26:38;;;;;;;14.70;4.37;;;20.10;99.90;;;;;;5070085;28;20712;-68
2021/12/09 08:29:06;;;;;;;10.60;3.97;;;20.00;99.90;;;;;;5068501;28;20870;-65
2021/12/09 08:31:35;;;;;;;13.13;4.00;;;20.00;99.90;;;;;;5051069;28;20195;-66
2021/12/09 08:34:03;;;;;;;9.13;3.87;;;19.90;99.90;;;;;;5067801;28;20188;-66
2021/12/09 08:36:32;;;;;;;12.07;3.90;;;19.90;99.90;;;;;;5067118;28;20541;-66
2021/12/09 08:39:00;;;;;;;14.13;3.83;;;19.90;99.90;;;;;;5068080;28;20217;-65
2021/12/09 08:41:27;;;;;;;12.20;4.83;;;19.90;99.90;;;;;;5067964;28;20238;-66
2021/12/09 08:43:55;;;;;;;13.23;4.10;;;19.80;99.90;;;;;;5069351;28;20210;-65
2021/12/09 08:46:22;;;;;;;11.50;4.53;;;19.80;99.90;;;;;;5066783;28;20208;-65
2021/12/09 08:48:49;;;;;;;8.47;3.70;;;19.80;99.90;;;;;;5066334;28;20195;-66
2021/12/09 08:51:17;;;;;;;16.07;5.97;;;19.90;99.90;;;;;;5067900;28;20183;-65
2021/12/09 08:53:46;;;;;;;17.97;6.33;;;19.80;99.90;;;;;;5068175;28;20223;-66
2021/12/09 08:56:13;;;;;;;17.70;5.10;;;19.80;99.90;;;;;;5067021;28;20218;-66
2021/12/09 08:58:40;;;;;;;12.60;4.47;;;19.80;99.90;;;;;;5070718;28;20750;-66
2021/12/09 09:01:11;;;;;;;16.53;4.80;;;19.80;99.90;;;;;;5068598;28;20250;-67
2021/12/09 09:03:39;;;;;;;14.07;4.10;;;19.70;99.90;;;;;;5065201;28;20201;-65
2021/12/09 09:06:07;;;;;;;10.53;4.03;;;19.70;99.90;;;;;;5067264;28;20274;-65
2021/12/09 09:08:34;;;;;;;13.60;5.07;;;19.60;99.90;;;;;;5070749;28;20543;-65
2021/12/09 09:11:01;;;;;;;15.90;3.93;;;19.50;99.90;;;;;;5067671;28;20226;-65
2021/12/09 09:13:29;;;;;;;11.03;4.73;;;19.40;99.90;;;;;;5069675;28;20219;-64
2021/12/09 09:15:56;;;;;;;10.40;3.83;;;19.40;99.90;;;;;;5068836;28;20294;-65
2021/12/09 09:18:24;;;;;;;9.27;4.00;;;19.40;99.90;;;;;;5067809;28;20187;-64
2021/12/09 09:20:51;;;;;;;8.87;3.83;;;19.40;99.90;;;;;;5066712;28;20263;-64
2021/12/09 09:23:21;;;;;;;13.43;4.00;;;19.30;99.90;;;;;;5066990;28;20183;-66
2021/12/09 09:25:50;;;;;;;8.70;3.10;;;19.40;99.90;;;;;;5066062;28;20191;-64
2021/12/09 09:28:18;;;;;;;10.83;3.50;;;19.30;99.90;;;;;;5067398;28;20642;-64
2021/12/09 09:30:53;;;;;;;13.70;3.20;;;19.30;99.90;;;;;;5063859;28;20557;-65
2021/12/09 09:33:23;;;;;;;9.37;3.50;;;19.20;99.90;;;;;;5067766;28;20193;-65
2021/12/09 09:35:53;;;;;;;9.17;3.40;;;19.30;99.90;;;;;;5067504;28;20206;-66
2021/12/09 09:38:22;;;;;;;11.67;3.20;;;19.30;99.90;;;;;;5050619;28;20657;-65
2021/12/09 09:41:06;;;;;;;12.13;3.67;;;19.30;99.90;;;;;;5068815;28;20226;-66
2021/12/09 09:46:16;;;;;;;10.77;3.57;;;19.30;99.90;;;;;;5063865;28;20191;-69
2021/12/09 09:48:50;;;;;;;10.83;3.33;;;19.40;99.90;;;;;;5066903;28;20695;-67
2021/12/09 09:51:19;;;;;;;10.07;3.27;;;19.40;99.90;;;;;;5069260;28;20681;-70
2021/12/09 09:53:46;;;;;;;10.17;3.57;;;19.40;99.90;;;;;;5066065;28;20276;-66
2021/12/09 09:56:18;;;;;;;9.27;3.30;;;19.40;99.90;;;;;;5066436;28;20203;-65
2021/12/09 09:58:50;;;;;;;125.90;84.00;;;19.40;99.90;;;;;;5064636;28;20265;-65
2021/12/09 10:01:18;;;;;;;9.13;3.43;;;19.40;99.90;;;;;;5068076;28;20215;-66
2021/12/09 10:03:48;;;;;;;11.07;3.43;;;19.40;99.90;;;;;;5065156;28;20187;-66
2021/12/09 10:06:19;;;;;;;8.67;3.50;;;19.50;99.90;;;;;;5069460;28;20191;-66
2021/12/09 10:08:47;;;;;;;12.70;4.23;;;19.50;99.90;;;;;;5067505;28;20202;-66
2021/12/09 10:11:15;;;;;;;17.87;4.90;;;19.40;99.90;;;;;;5067485;28;20529;-66
2021/12/09 10:13:44;;;;;;;10.93;3.50;;;19.40;99.90;;;;;;5068021;28;20476;-65
2021/12/09 10:16:27;;;;;;;10.60;3.60;;;19.40;99.90;;;;;;5066162;28;20198;-66
2021/12/09 10:18:56;;;;;;;7.93;3.40;;;19.40;99.90;;;;;;5069292;28;20596;-66
2021/12/09 10:21:25;;;;;;;9.77;3.27;;;19.50;99.90;;;;;;5067258;28;20223;-65
2021/12/09 10:24:07;;;;;;;8.47;3.10;;;19.50;99.90;;;;;;5063456;28;20191;-65
2021/12/09 10:26:45;;;;;;;13.00;3.90;;;19.50;99.90;;;;;;5067955;28;20676;-65
2021/12/09 10:29:27;;;;;;;14.67;4.03;;;19.50;99.90;;;;;;5065423;28;20221;-65
2021/12/09 10:31:59;;;;;;;13.37;4.03;;;19.50;99.90;;;;;;5063365;28;20610;-65
2021/12/09 10:34:36;;;;;;;12.43;4.13;;;19.50;99.90;;;;;;5069841;28;20342;-66
2021/12/09 10:37:22;;;;;;;15.83;4.87;;;19.60;99.90;;;;;;5067344;28;20186;-66
2021/12/09 10:40:03;;;;;;;12.67;4.07;;;19.50;99.90;;;;;;5067591;28;20187;-67
2021/12/09 10:42:37;;;;;;;13.50;4.13;;;19.50;99.90;;;;;;5069478;28;20274;-66
2021/12/09 10:45:11;;;;;;;13.20;4.27;;;19.50;99.90;;;;;;5065101;28;20569;-69
2021/12/09 10:47:58;;;;;;;10.83;3.37;;;19.40;99.90;;;;;;5067806;28;20178;-66
2021/12/09 10:50:45;;;;;;;14.33;3.50;;;19.40;99.90;;;;;;5074005;28;20175;-68
2021/12/09 10:55:54;;;;;;;11.43;2.63;;;19.30;99.90;;;;;;5072471;28;20191;-66
2021/12/09 10:58:24;;;;;;;7.90;4.07;;;19.30;99.90;;;;;;5070187;28;20182;-65
2021/12/09 11:00:58;;;;;;;11.47;2.60;;;19.30;99.90;;;;;;5069933;28;20206;-65
2021/12/09 11:03:40;;;;;;;8.33;3.10;;;19.20;99.90;;;;;;5069952;28;20222;-68
2021/12/09 11:06:12;;;;;;;10.53;3.47;;;19.20;99.90;;;;;;5068072;28;20246;-66
2021/12/09 11:08:53;;;;;;;9.30;3.00;;;19.20;99.90;;;;;;5072428;28;20768;-66
2021/12/09 11:11:33;;;;;;;7.37;3.10;;;19.10;99.90;;;;;;5070434;28;20194;-65
2021/12/09 11:14:13;;;;;;;8.33;3.20;;;19.10;99.90;;;;;;5071617;28;20179;-67
2021/12/09 11:16:44;;;;;;;7.57;3.40;;;19.00;99.90;;;;;;5072345;28;20175;-65
2021/12/09 11:22:02;;;;;;;7.93;3.10;;;19.00;99.90;;;;;;5071896;28;20215;-66
2021/12/09 11:24:36;;;;;;;10.43;2.87;;;19.00;99.90;;;;;;5069038;28;20661;-65
2021/12/09 11:27:07;;;;;;;7.37;3.13;;;18.90;99.90;;;;;;5069467;28;20191;-66
2021/12/09 11:29:42;;;;;;;6.57;3.07;;;18.90;99.90;;;;;;5069718;28;20195;-65
2021/12/09 11:40:08;;;;;;;5.00;2.67;;;19.00;99.90;;;;;;5079094;28;20190;-66
2021/12/09 11:42:50;;;;;;;6.23;3.17;;;19.00;99.90;;;;;;5071572;28;20194;-68
2021/12/09 11:45:23;;;;;;;5.60;2.97;;;19.00;99.90;;;;;;5069113;28;20269;-66
2021/12/09 11:47:53;;;;;;;7.53;3.07;;;19.00;99.90;;;;;;5064241;28;20207;-65
2021/12/09 11:50:32;;;;;;;10.40;3.20;;;19.00;99.90;;;;;;5070194;28;20221;-67
2021/12/09 11:53:01;;;;;;;9.03;3.33;;;19.00;99.90;;;;;;5068489;28;20274;-66
2021/12/09 11:55:35;;;;;;;9.23;3.47;;;19.00;99.90;;;;;;5068532;28;20709;-67
2021/12/09 11:58:14;;;;;;;6.00;3.13;;;19.00;99.90;;;;;;5071564;28;20195;-70
2021/12/09 12:07:07;;;;;;;8.67;2.80;;;19.00;99.90;;;;;;5066028;28;20666;-65
2021/12/09 12:12:48;;;;;;;6.23;2.87;;;19.00;99.90;;;;;;5066226;28;20180;-70
2021/12/09 12:15:27;;;;;;;7.07;3.27;;;19.00;99.90;;;;;;5070326;28;20198;-68
2021/12/09 12:20:48;;;;;;;8.67;2.77;;;19.10;99.90;;;;;;5067428;28;20203;-67
2021/12/09 12:23:43;;;;;;;7.17;2.67;;;19.00;99.90;;;;;;5070688;28;20225;-66
2021/12/09 12:26:57;;;;;;;5.83;2.93;;;19.00;99.90;;;;;;5068251;28;20244;-69
2021/12/09 12:29:49;;;;;;;7.30;2.60;;;19.00;99.90;;;;;;5067913;28;20190;-65
2021/12/09 12:38:19;;;;;;;11.37;4.30;;;19.00;99.90;;;;;;5070562;28;20204;-66
2021/12/09 12:41:12;;;;;;;8.17;3.60;;;19.10;99.90;;;;;;5071466;28;20199;-65
2021/12/09 12:43:54;;;;;;;8.87;3.07;;;18.90;99.90;;;;;;5070391;28;20188;-63
2021/12/09 12:46:56;;;;;;;7.07;3.40;;;18.90;99.90;;;;;;5069477;28;20190;-64
2021/12/09 12:52:03;;;;;;;12.30;4.40;;;18.80;99.90;;;;;;5071396;28;20184;-63
2021/12/09 12:57:41;;;;;;;7.53;3.80;;;18.80;99.90;;;;;;5066770;28;20614;-64
2021/12/09 13:00:16;;;;;;;6.97;3.80;;;18.80;99.90;;;;;;5070508;28;20174;-66
2021/12/09 13:06:29;;;;;;;8.03;3.40;;;18.70;99.90;;;;;;5069786;28;20657;-63
2021/12/09 13:11:50;;;;;;;7.07;4.83;;;18.60;99.90;;;;;;5066559;28;20186;-65
2021/12/09 13:14:23;;;;;;;6.93;4.50;;;18.60;99.90;;;;;;5066333;28;20196;-66
2021/12/09 13:17:06;;;;;;;8.57;4.73;;;18.70;99.90;;;;;;5070408;28;20191;-64
2021/12/09 13:19:40;;;;;;;9.53;4.17;;;18.60;99.90;;;;;;5067814;28;20191;-63
2021/12/09 13:22:11;;;;;;;8.17;2.90;;;18.60;99.90;;;;;;5068910;28;20233;-65
2021/12/09 13:30:19;;;;;;;5.57;3.10;;;18.60;99.90;;;;;;5071059;28;20296;-65
2021/12/09 13:54:30;;;;;;;5.20;2.93;;;18.40;99.90;;;;;;5064519;28;20292;-64
2021/12/09 13:56:59;;;;;;;10.20;3.40;;;18.40;99.90;;;;;;5068093;28;20202;-68
2021/12/09 13:59:29;;;;;;;3.30;2.70;;;18.40;99.90;;;;;;5071644;28;20176;-62
2021/12/09 14:01:59;;;;;;;9.13;3.13;;;18.30;99.90;;;;;;5071714;28;20234;-64
2021/12/09 14:04:37;;;;;;;5.80;3.40;;;18.20;99.90;;;;;;5071821;28;20167;-62
2021/12/09 14:09:35;;;;;;;8.60;3.53;;;18.10;99.90;;;;;;5072233;28;20191;-65
2021/12/09 14:12:04;;;;;;;6.03;1.60;;;18.20;99.90;;;;;;5070969;28;20197;-66
2021/12/09 14:14:51;;;;;;;2.20;1.30;;;17.00;99.90;;;;;;5071755;28;20193;-69
2021/12/09 14:17:23;;;;;;;3.07;1.00;;;16.50;99.90;;;;;;5070243;28;20184;-63
2021/12/09 14:20:06;;;;;;;3.67;1.13;;;16.00;99.90;;;;;;5071054;28;20194;-67
2021/12/09 14:22:38;;;;;;;2.90;1.13;;;15.80;99.90;;;;;;5063483;28;20273;-70